Time;durP1;ratioP1;P1;durP2;ratioP2;P2;SDS_P1;SDS_P2;PMS_P1;PMS_P2;Temp;Humidity;BMP_temperature;BMP_pressure;BME280_temperature;BME280_humidity;BME280_pressure;Samples;Min_cycle;Max_cycle;Signal;HPM_P1;HPM_P2
2022/09/03 00:00:13;;;;;;;3.95;3.33;;;;;;;19.41;100.00;99901.47;4918929;29;20326;-81
2022/09/03 00:02:44;;;;;;;3.90;3.50;;;;;;;19.46;100.00;99905.75;4933593;29;20200;-81
2022/09/03 00:05:18;;;;;;;4.30;3.17;;;;;;;19.57;100.00;99911.63;4952785;28;20680;-80
2022/09/03 00:07:55;;;;;;;5.43;3.90;;;;;;;19.74;100.00;99919.97;4994154;28;20233;-80
2022/09/03 00:10:28;;;;;;;6.15;3.67;;;;;;;19.73;100.00;99926.13;4991815;28;20256;-80
2022/09/03 00:13:01;;;;;;;5.45;3.40;;;;;;;19.33;100.00;99888.53;4993752;28;20224;-76
2022/09/03 00:15:31;;;;;;;5.93;3.33;;;;;;;19.48;100.00;99934.63;4993302;28;20202;-72
2022/09/03 00:18:04;;;;;;;4.47;3.20;;;;;;;19.28;100.00;99920.19;4992885;28;20201;-81
2022/09/03 00:20:35;;;;;;;3.42;3.20;;;;;;;19.25;100.00;99906.25;4993540;28;20217;-81
2022/09/03 00:23:07;;;;;;;5.35;3.80;;;;;;;19.36;100.00;99941.03;4993357;28;20689;-81
2022/09/03 00:25:38;;;;;;;7.60;3.83;;;;;;;19.23;100.00;99924.66;4993544;28;20212;-80
2022/09/03 00:28:17;;;;;;;2.15;2.05;;;;;;;19.08;100.00;99932.91;4993470;28;20204;-80
2022/09/03 00:30:47;;;;;;;4.30;3.90;;;;;;;19.33;100.00;99945.50;4993212;28;20583;-81
2022/09/03 00:33:20;;;;;;;3.22;3.03;;;;;;;19.28;100.00;99940.34;4993333;28;20209;-81
2022/09/03 00:35:52;;;;;;;5.95;3.75;;;;;;;18.93;100.00;99866.69;4992515;28;20201;-81
2022/09/03 00:38:21;;;;;;;4.03;3.72;;;;;;;19.47;100.00;99952.22;4993371;28;20289;-81
2022/09/03 00:41:05;;;;;;;3.85;3.55;;;;;;;19.28;100.00;99933.31;4992992;28;20279;-82
2022/09/03 00:43:46;;;;;;;5.70;3.97;;;;;;;19.29;100.00;99960.47;4993404;28;20301;-81
2022/09/03 00:46:21;;;;;;;7.63;3.88;;;;;;;19.20;100.00;99948.41;4991564;28;20202;-82
2022/09/03 00:49:11;;;;;;;3.90;3.65;;;;;;;19.14;100.00;99951.16;4992234;28;20201;-82
2022/09/03 00:51:43;;;;;;;4.63;3.78;;;;;;;19.33;100.00;99956.03;4990547;28;20201;-79
2022/09/03 00:54:19;;;;;;;4.38;3.83;;;;;;;19.53;100.00;99965.22;4991444;28;20205;-81
2022/09/03 00:56:53;;;;;;;3.88;3.17;;;;;;;19.35;100.00;99964.72;4991830;28;20212;-82
2022/09/03 00:59:32;;;;;;;4.97;4.00;;;;;;;19.42;100.00;99972.47;4958240;28;20292;-82
2022/09/03 01:02:08;;;;;;;3.30;3.05;;;;;;;19.30;100.00;99967.44;4992729;28;20225;-81
2022/09/03 01:04:48;;;;;;;5.55;3.88;;;;;;;19.39;100.00;99963.75;4992836;28;20649;-82
2022/09/03 01:07:23;;;;;;;3.67;3.40;;;;;;;19.22;100.00;99965.00;4973438;28;20242;-81
2022/09/03 01:10:01;;;;;;;4.38;3.40;;;;;;;19.08;100.00;99966.22;4990537;28;20196;-81
2022/09/03 01:12:35;;;;;;;4.15;3.72;;;;;;;19.18;100.00;99960.72;4992616;28;20263;-82
2022/09/03 01:15:12;;;;;;;6.68;3.65;;;;;;;19.06;100.00;99968.84;4992075;28;20228;-82
2022/09/03 01:17:54;;;;;;;4.85;4.15;;;;;;;19.01;100.00;99960.22;4992484;28;20197;-82
2022/09/03 01:20:31;;;;;;;4.15;3.78;;;;;;;19.11;100.00;99976.66;4992124;28;20197;-81
2022/09/03 01:23:38;;;;;;;3.67;3.38;;;;;;;19.02;100.00;99972.44;4992666;28;20271;-80
2022/09/03 01:26:22;;;;;;;3.97;3.58;;;;;;;18.47;100.00;99937.66;4992331;28;20212;-79
2022/09/03 01:29:04;;;;;;;4.63;4.22;;;;;;;18.74;100.00;99971.28;4991920;28;20208;-82
2022/09/03 01:31:41;;;;;;;4.43;3.80;;;;;;;18.75;100.00;99981.78;4992202;28;20210;-82
2022/09/03 01:34:21;;;;;;;3.20;3.00;;;;;;;18.34;100.00;99960.63;4957245;28;20201;-81
2022/09/03 01:36:56;;;;;;;4.25;3.95;;;;;;;18.63;100.00;99979.38;4991549;28;20201;-82
2022/09/03 01:39:34;;;;;;;3.80;3.50;;;;;;;18.54;100.00;99984.81;4991695;28;20205;-81
2022/09/03 01:42:15;;;;;;;4.32;3.63;;;;;;;18.51;100.00;99966.50;4991968;28;20629;-82
2022/09/03 01:45:01;;;;;;;6.00;3.50;;;;;;;18.72;100.00;99988.84;4992001;28;20237;-82
2022/09/03 01:47:41;;;;;;;4.57;3.70;;;;;;;18.69;100.00;99994.16;4991895;28;20201;-82
2022/09/03 01:50:18;;;;;;;3.70;3.40;;;;;;;18.80;100.00;99995.66;4984446;28;20197;-82
2022/09/03 01:52:54;;;;;;;3.50;3.25;;;;;;;18.52;100.00;99956.81;4974632;28;20277;-83
2022/09/03 01:55:32;;;;;;;5.63;3.55;;;;;;;18.66;100.00;99991.56;4991394;28;20202;-81
2022/09/03 01:58:02;;;;;;;2.85;2.65;;;;;;;18.44;100.00;99977.09;4990885;28;20589;-79
2022/09/03 02:00:33;;;;;;;3.50;3.17;;;;;;;18.43;100.00;99992.00;4990740;28;20201;-82
2022/09/03 02:03:04;;;;;;;3.38;3.17;;;;;;;18.41;100.00;99996.38;4990757;28;20202;-81
2022/09/03 02:05:31;;;;;;;4.13;3.83;;;;;;;18.61;100.00;99996.94;4991637;28;20233;-80
2022/09/03 02:08:01;;;;;;;4.30;4.00;;;;;;;18.72;100.00;99999.34;4991051;28;20236;-82
2022/09/03 02:10:32;;;;;;;4.88;3.35;;;;;;;18.63;100.00;99984.63;4991178;28;20285;-81
2022/09/03 02:13:05;;;;;;;5.78;3.80;;;;;;;18.75;100.00;99988.78;4991304;28;20210;-81
2022/09/03 02:15:35;;;;;;;3.25;3.05;;;;;;;18.58;100.00;99996.13;4957107;28;20668;-82
2022/09/03 02:18:06;;;;;;;6.18;2.92;;;;;;;18.50;100.00;99983.09;4941315;28;20578;-80
2022/09/03 02:20:33;;;;;;;3.33;3.03;;;;;;;18.49;100.00;99999.75;4990504;28;20726;-82
2022/09/03 02:22:59;;;;;;;5.03;3.20;;;;;;;18.54;100.00;100011.06;4990271;28;20197;-83
2022/09/03 02:25:33;;;;;;;3.70;3.22;;;;;;;18.62;100.00;100010.94;4991379;28;20201;-83
2022/09/03 02:28:01;;;;;;;4.10;3.70;;;;;;;18.40;100.00;100002.56;4988716;28;20264;-82
2022/09/03 02:30:28;;;;;;;3.13;2.92;;;;;;;18.39;100.00;99978.94;4973141;28;20194;-82
2022/09/03 02:32:56;;;;;;;5.78;3.83;;;;;;;18.67;100.00;100001.19;4991035;28;20569;-82
2022/09/03 02:35:23;;;;;;;3.50;3.28;;;;;;;18.36;100.00;99989.50;4991061;28;20290;-82
2022/09/03 02:37:50;;;;;;;3.83;3.42;;;;;;;18.51;100.00;100018.13;4990914;28;20201;-82
2022/09/03 02:40:17;;;;;;;4.30;3.47;;;;;;;18.32;100.00;99994.81;4991391;28;20216;-82
2022/09/03 02:42:44;;;;;;;4.10;3.50;;;;;;;18.21;100.00;100003.75;4990821;28;20233;-82
2022/09/03 02:45:24;;;;;;;5.82;3.67;;;;;;;18.49;100.00;100015.50;4990852;28;20206;-82
2022/09/03 02:47:55;;;;;;;4.90;3.50;;;;;;;18.42;100.00;100015.63;4991148;28;20189;-81
2022/09/03 02:50:23;;;;;;;3.70;3.40;;;;;;;18.47;100.00;100016.44;4991205;28;20209;-81
2022/09/03 02:52:50;;;;;;;3.85;3.55;;;;;;;18.53;100.00;100018.97;4990963;28;20208;-82
2022/09/03 02:55:18;;;;;;;4.05;3.70;;;;;;;18.58;100.00;100015.38;4991310;28;20580;-81
2022/09/03 02:57:46;;;;;;;3.75;3.35;;;;;;;18.43;100.00;100017.38;4990950;28;20205;-83
2022/09/03 03:00:14;;;;;;;6.20;3.50;;;;;;;18.48;100.00;100015.53;4990403;28;20252;-82
2022/09/03 03:02:41;;;;;;;4.15;3.67;;;;;;;18.24;100.00;100001.94;4990551;28;20701;-82
2022/09/03 03:05:15;;;;;;;8.43;3.50;;;;;;;18.32;100.00;100007.94;4957099;28;20197;-82
2022/09/03 03:07:43;;;;;;;4.10;3.70;;;;;;;17.88;100.00;99925.59;4990924;28;20241;-83
2022/09/03 03:10:11;;;;;;;3.83;3.35;;;;;;;18.19;100.00;99990.63;4956220;28;20193;-82
2022/09/03 03:12:38;;;;;;;5.65;4.07;;;;;;;18.33;100.00;100014.06;4956904;28;20213;-79
2022/09/03 03:15:06;;;;;;;4.03;3.72;;;;;;;18.46;100.00;100012.94;4994956;28;20209;-83
2022/09/03 03:17:33;;;;;;;4.50;4.05;;;;;;;18.41;100.00;100006.03;4994670;28;20205;-81
2022/09/03 03:20:00;;;;;;;5.15;4.07;;;;;;;18.56;100.00;100014.53;4994709;28;20670;-82
2022/09/03 03:22:27;;;;;;;3.83;3.53;;;;;;;18.52;100.00;100012.84;4955421;28;20218;-83
2022/09/03 03:24:56;;;;;;;4.60;4.20;;;;;;;18.32;100.00;100009.69;4992045;28;20205;-82
2022/09/03 03:27:23;;;;;;;5.35;3.88;;;;;;;18.31;100.00;100005.31;4994960;28;20197;-81
2022/09/03 03:29:50;;;;;;;4.65;3.80;;;;;;;18.22;100.00;100001.13;4994337;28;20252;-81
2022/09/03 03:32:17;;;;;;;4.68;3.83;;;;;;;18.06;100.00;99998.75;4994510;28;20209;-83
2022/09/03 03:34:44;;;;;;;4.63;3.97;;;;;;;18.13;100.00;99997.75;4993866;28;20594;-81
2022/09/03 03:37:11;;;;;;;5.57;4.20;;;;;;;18.16;100.00;99992.44;4994146;28;20636;-81
2022/09/03 03:39:38;;;;;;;6.82;4.22;;;;;;;18.39;100.00;100000.81;4994138;28;20682;-81
2022/09/03 03:42:06;;;;;;;5.70;4.05;;;;;;;18.26;100.00;100000.13;4994433;28;20803;-80
2022/09/03 03:44:33;;;;;;;5.47;4.40;;;;;;;18.34;100.00;100000.88;4975075;28;20221;-81
2022/09/03 03:47:00;;;;;;;5.47;4.72;;;;;;;18.31;100.00;100007.94;4957923;28;20216;-81
2022/09/03 03:49:26;;;;;;;4.75;4.35;;;;;;;18.18;100.00;100011.69;4994009;28;20201;-80
2022/09/03 03:51:53;;;;;;;5.28;4.78;;;;;;;18.15;100.00;99990.75;4994359;28;20209;-82
2022/09/03 03:54:21;;;;;;;5.32;3.85;;;;;;;18.12;100.00;100010.00;4994112;28;20566;-82
2022/09/03 03:56:48;;;;;;;6.57;4.63;;;;;;;18.32;100.00;100017.56;4994346;28;20207;-82
2022/09/03 03:59:16;;;;;;;5.30;4.53;;;;;;;18.54;100.00;100020.72;4993609;28;20209;-82
2022/09/03 04:01:43;;;;;;;7.15;4.60;;;;;;;18.44;100.00;100024.38;4959312;28;20241;-82
2022/09/03 04:04:09;;;;;;;4.80;4.40;;;;;;;18.44;100.00;100030.47;4993883;28;20198;-81
2022/09/03 04:06:36;;;;;;;5.28;4.25;;;;;;;18.24;100.00;100022.94;4994662;28;20205;-80
2022/09/03 04:09:03;;;;;;;4.07;3.78;;;;;;;18.13;100.00;100030.13;4993281;28;20621;-80
2022/09/03 04:11:30;;;;;;;6.05;4.32;;;;;;;18.12;100.00;100035.41;4993944;28;20193;-82
2022/09/03 04:13:57;;;;;;;6.15;4.45;;;;;;;18.01;100.00;100018.97;4993825;28;20197;-82
2022/09/03 04:16:27;;;;;;;5.95;4.53;;;;;;;18.31;100.00;100034.19;4993859;28;20202;-81
2022/09/03 04:18:55;;;;;;;4.43;3.88;;;;;;;18.21;100.00;100028.25;4993679;28;20206;-82
2022/09/03 04:21:23;;;;;;;5.88;3.83;;;;;;;18.24;100.00;99999.31;4991064;28;20209;-81
2022/09/03 04:23:52;;;;;;;6.68;4.07;;;;;;;18.32;100.00;100039.44;4993641;28;20220;-82
2022/09/03 04:26:20;;;;;;;6.65;4.03;;;;;;;18.38;100.00;100050.69;4957671;28;20274;-83
2022/09/03 04:28:47;;;;;;;4.50;3.70;;;;;;;17.65;100.00;100017.78;4993273;28;20212;-82
2022/09/03 04:31:16;;;;;;;3.63;3.33;;;;;;;17.91;100.00;100047.09;4993686;28;20205;-81
2022/09/03 04:33:44;;;;;;;6.28;4.18;;;;;;;18.10;100.00;100051.16;4993442;28;20230;-82
2022/09/03 04:36:13;;;;;;;4.78;4.35;;;;;;;18.21;100.00;100044.00;4993647;28;20724;-83
2022/09/03 04:38:42;;;;;;;7.78;4.10;;;;;;;18.30;100.00;100059.56;4992802;28;20212;-82
2022/09/03 04:41:10;;;;;;;9.50;4.13;;;;;;;18.06;100.00;100057.34;4992892;28;20201;-82
2022/09/03 04:43:37;;;;;;;5.10;3.95;;;;;;;18.15;100.00;100057.22;4992774;28;20217;-81
2022/09/03 04:46:06;;;;;;;4.75;3.72;;;;;;;18.01;100.00;100040.84;4993158;28;20197;-81
2022/09/03 04:48:34;;;;;;;5.18;4.38;;;;;;;18.01;100.00;100055.72;4993166;28;20206;-83
2022/09/03 04:51:05;;;;;;;7.03;4.35;;;;;;;18.30;100.00;100067.44;4992829;28;20212;-83
2022/09/03 04:53:32;;;;;;;8.55;4.40;;;;;;;18.17;100.00;100063.31;4993106;28;20194;-81
2022/09/03 04:55:59;;;;;;;4.28;3.92;;;;;;;17.97;100.00;100069.75;4993289;28;20194;-82
2022/09/03 04:58:26;;;;;;;5.97;4.60;;;;;;;17.59;100.00;100009.97;4992658;28;20230;-83
2022/09/03 05:00:53;;;;;;;4.10;3.70;;;;;;;17.97;100.00;100078.50;4992230;28;20217;-84
2022/09/03 05:03:20;;;;;;;7.38;4.72;;;;;;;17.84;100.00;100055.94;4992656;28;20229;-83
2022/09/03 05:05:53;;;;;;;5.10;4.18;;;;;;;18.14;100.00;100070.34;4992589;28;20229;-82
2022/09/03 05:08:22;;;;;;;6.53;4.20;;;;;;;17.98;100.00;100040.84;4993238;28;20229;-81
2022/09/03 05:10:49;;;;;;;4.63;4.25;;;;;;;17.82;100.00;100040.25;4991896;28;20205;-80
2022/09/03 05:13:16;;;;;;;4.78;4.35;;;;;;;18.01;100.00;100082.81;4993004;28;20201;-84
2022/09/03 05:15:44;;;;;;;6.25;4.28;;;;;;;18.03;100.00;100091.50;4992062;28;20245;-85
2022/09/03 05:18:12;;;;;;;7.18;4.30;;;;;;;18.16;100.00;100093.06;4958357;28;20198;-74
2022/09/03 05:20:39;;;;;;;4.53;4.13;;;;;;;18.48;100.00;100083.81;4992611;28;20209;-80
2022/09/03 05:23:06;;;;;;;4.88;4.22;;;;;;;17.97;100.00;100070.63;4989379;28;20221;-81
2022/09/03 05:25:34;;;;;;;8.15;4.32;;;;;;;17.97;100.00;100081.13;4989876;28;20209;-83
2022/09/03 05:28:01;;;;;;;11.00;4.32;;;;;;;17.99;100.00;100088.94;4992199;28;20212;-85
2022/09/03 05:30:28;;;;;;;5.47;4.70;;;;;;;18.14;100.00;100094.84;4990836;28;20297;-82
2022/09/03 05:32:56;;;;;;;5.18;4.70;;;;;;;18.17;100.00;100094.78;4990732;28;20615;-79
2022/09/03 05:35:24;;;;;;;6.10;4.63;;;;;;;18.13;100.00;100087.84;4991490;28;20573;-77
2022/09/03 05:37:54;;;;;;;7.55;5.55;;;;;;;18.22;100.00;100102.59;4992260;28;20673;-78
2022/09/03 05:40:21;;;;;;;9.43;5.40;;;;;;;18.16;100.00;100085.19;4990317;28;20220;-80
2022/09/03 05:42:56;;;;;;;5.00;4.50;;;;;;;18.31;100.00;100082.31;4992000;28;20197;-76
2022/09/03 05:45:23;;;;;;;11.38;9.02;;;;;;;18.38;100.00;100092.69;4989641;28;20292;-78
2022/09/03 05:47:50;;;;;;;6.85;4.55;;;;;;;18.41;100.00;100093.53;4992610;28;20263;-80
2022/09/03 05:50:17;;;;;;;7.50;4.15;;;;;;;18.19;100.00;100116.63;4992004;28;20202;-82
2022/09/03 05:52:44;;;;;;;6.95;4.35;;;;;;;18.06;100.00;100112.47;4991563;28;20871;-80
2022/09/03 05:55:10;;;;;;;5.82;4.38;;;;;;;18.06;100.00;100127.34;4992026;28;20209;-81
2022/09/03 05:57:37;;;;;;;6.03;5.10;;;;;;;18.02;100.00;100126.50;4991728;28;20205;-80
2022/09/03 06:00:07;;;;;;;5.28;4.82;;;;;;;18.23;100.00;100118.31;4991556;28;20241;-83
2022/09/03 06:02:34;;;;;;;26.30;16.17;;;;;;;18.21;100.00;100120.09;4943676;28;20225;-79
2022/09/03 06:05:00;;;;;;;11.93;8.15;;;;;;;18.23;100.00;100105.19;4990027;28;20206;-83
2022/09/03 06:07:28;;;;;;;7.32;5.10;;;;;;;18.35;100.00;100125.13;4990738;28;20233;-82
2022/09/03 06:09:55;;;;;;;8.18;4.63;;;;;;;18.55;100.00;100133.56;4991565;28;20205;-84
2022/09/03 06:12:21;;;;;;;4.65;4.20;;;;;;;18.68;100.00;100139.50;4991405;28;20236;-81
2022/09/03 06:14:48;;;;;;;7.43;4.45;;;;;;;18.56;100.00;100142.31;4990153;28;20563;-80
2022/09/03 06:17:16;;;;;;;8.95;4.60;;;;;;;18.74;100.00;100139.41;4977951;28;20206;-79
2022/09/03 06:19:43;;;;;;;6.80;4.93;;;;;;;18.66;100.00;100151.78;4985541;28;20198;-82
2022/09/03 06:22:10;;;;;;;6.25;4.68;;;;;;;18.64;100.00;100145.72;4989190;28;20585;-81
2022/09/03 06:24:37;;;;;;;9.23;5.28;;;;;;;18.48;100.00;100126.66;4954300;28;20217;-78
2022/09/03 06:27:04;;;;;;;6.50;5.13;;;;;;;18.56;100.00;100150.22;4981390;28;20206;-78
2022/09/03 06:29:31;;;;;;;9.05;4.90;;;;;;;18.47;100.00;100160.84;4988360;28;20220;-79
2022/09/03 06:31:58;;;;;;;4.68;4.22;;;;;;;18.41;100.00;100159.16;4990375;28;20197;-77
2022/09/03 06:34:27;;;;;;;8.07;4.38;;;;;;;18.55;100.00;100165.09;4988574;28;20209;-79
2022/09/03 06:36:54;;;;;;;5.63;5.07;;;;;;;18.27;100.00;100169.88;4953960;28;20291;-79
2022/09/03 06:39:21;;;;;;;4.88;4.35;;;;;;;18.46;100.00;100157.34;4964072;28;20579;-77
2022/09/03 06:41:50;;;;;;;5.28;4.30;;;;;;;18.43;100.00;100174.91;4990261;28;20201;-78
2022/09/03 06:44:17;;;;;;;10.90;7.78;;;;;;;18.44;100.00;100168.78;4990580;28;20289;-77
2022/09/03 06:46:44;;;;;;;51.42;32.50;;;;;;;18.57;100.00;100170.34;4990040;28;20197;-77
2022/09/03 06:49:11;;;;;;;7.88;5.10;;;;;;;18.61;100.00;100158.91;4989641;28;20753;-81
2022/09/03 06:51:42;;;;;;;6.07;4.95;;;;;;;18.50;100.00;100172.16;4989693;28;20208;-84
2022/09/03 06:54:10;;;;;;;13.32;6.03;;;;;;;18.53;100.00;100173.91;4988166;28;20256;-78
2022/09/03 06:56:39;;;;;;;7.07;5.03;;;;;;;18.49;100.00;100180.06;4989036;28;20201;-79
2022/09/03 06:59:07;;;;;;;5.75;5.18;;;;;;;18.68;100.00;100176.28;4989953;28;20220;-78
2022/09/03 07:01:34;;;;;;;6.65;5.50;;;;;;;18.82;100.00;100171.66;4989702;28;20213;-77
2022/09/03 07:04:03;;;;;;;6.25;4.63;;;;;;;18.79;100.00;100180.47;4990201;28;20213;-79
2022/09/03 07:06:32;;;;;;;7.10;5.28;;;;;;;18.95;100.00;100186.31;4971951;28;20209;-77
2022/09/03 07:09:00;;;;;;;12.52;4.60;;;;;;;18.61;100.00;100138.75;4986316;28;20316;-79
2022/09/03 07:11:29;;;;;;;10.23;5.20;;;;;;;18.86;100.00;100189.13;4986062;28;20686;-79
2022/09/03 07:13:57;;;;;;;5.53;5.00;;;;;;;18.53;100.00;100152.88;4988357;28;20225;-79
2022/09/03 07:16:26;;;;;;;5.57;4.47;;;;;;;18.46;100.00;100172.22;4990432;28;20217;-78
2022/09/03 07:18:53;;;;;;;7.47;4.95;;;;;;;18.64;100.00;100179.84;4990909;28;20197;-79
2022/09/03 07:21:22;;;;;;;5.65;4.93;;;;;;;18.83;100.00;100189.16;4991124;28;20208;-79
2022/09/03 07:23:50;;;;;;;7.78;4.60;;;;;;;18.63;100.00;100171.09;4990308;28;20190;-80
2022/09/03 07:26:20;;;;;;;7.20;4.97;;;;;;;18.89;100.00;100182.94;4990295;28;20205;-78
2022/09/03 07:28:47;;;;;;;8.77;5.10;;;;;;;19.05;100.00;100198.41;4989021;28;20654;-77
2022/09/03 07:31:18;;;;;;;5.90;5.30;;;;;;;19.22;100.00;100204.25;4990752;28;20201;-79
2022/09/03 07:33:45;;;;;;;12.13;4.95;;;;;;;19.36;100.00;100208.38;4989745;28;20229;-77
2022/09/03 07:36:14;;;;;;;6.40;4.88;;;;;;;19.62;100.00;100190.38;4989961;28;21145;-81
2022/09/03 07:38:42;;;;;;;6.20;4.90;;;;;;;19.72;100.00;100198.03;4991213;28;20205;-79
2022/09/03 07:41:10;;;;;;;9.15;5.40;;;;;;;20.02;100.00;100188.63;4990140;28;20194;-81
2022/09/03 07:43:39;;;;;;;7.28;4.65;;;;;;;20.53;100.00;100233.16;4971224;28;20206;-79
2022/09/03 07:46:07;;;;;;;5.53;4.50;;;;;;;20.31;100.00;100243.31;4990111;28;20236;-79
2022/09/03 07:48:34;;;;;;;6.85;4.20;;;;;;;20.46;100.00;100244.75;4989607;28;20268;-79
2022/09/03 07:51:01;;;;;;;7.85;5.20;;;;;;;20.51;100.00;100250.78;4976394;28;20201;-80
2022/09/03 07:53:29;;;;;;;5.22;4.70;;;;;;;20.66;100.00;100239.88;4971492;28;20222;-79
2022/09/03 07:56:02;;;;;;;11.82;5.22;;;;;;;20.88;100.00;100245.50;4988923;28;20213;-82
2022/09/03 07:58:29;;;;;;;9.85;5.32;;;;;;;20.85;100.00;100243.81;4985893;28;20217;-82
2022/09/03 08:00:59;;;;;;;6.32;4.95;;;;;;;20.96;100.00;100256.72;4988177;28;20209;-78
2022/09/03 08:03:25;;;;;;;5.53;4.65;;;;;;;20.64;100.00;100255.72;4991835;28;20209;-81
2022/09/03 08:05:52;;;;;;;17.35;6.47;;;;;;;20.66;100.00;100238.09;4992139;28;20208;-79
2022/09/03 08:08:19;;;;;;;12.35;5.00;;;;;;;20.80;100.00;100235.13;4986901;28;20616;-77
2022/09/03 08:10:46;;;;;;;6.35;4.60;;;;;;;20.88;100.00;100233.19;4992076;28;20205;-79
2022/09/03 08:13:13;;;;;;;12.93;5.18;;;;;;;21.17;100.00;100243.91;4953654;28;20226;-76
2022/09/03 08:15:41;;;;;;;6.53;4.80;;;;;;;21.26;100.00;100256.84;4974576;28;20201;-74
2022/09/03 08:18:10;;;;;;;17.95;5.78;;;;;;;21.51;100.00;100257.06;4991384;28;20197;-78
2022/09/03 08:20:38;;;;;;;12.60;5.25;;;;;;;21.24;100.00;100216.47;4990442;28;20205;-81
2022/09/03 08:23:05;;;;;;;9.43;5.70;;;;;;;21.57;100.00;100259.56;4987778;28;20632;-80
2022/09/03 08:25:32;;;;;;;7.05;5.88;;;;;;;21.45;100.00;100248.44;4992776;28;20306;-81
2022/09/03 08:28:00;;;;;;;11.48;6.05;;;;;;;21.44;100.00;100246.75;4958693;28;20256;-78
2022/09/03 08:30:27;;;;;;;8.23;5.45;;;;;;;21.20;100.00;100259.66;4992812;28;20252;-80
2022/09/03 08:32:55;;;;;;;9.48;6.75;;;;;;;21.38;100.00;100262.72;4991953;28;20221;-78
2022/09/03 08:35:23;;;;;;;11.88;6.50;;;;;;;21.55;100.00;100245.53;5004154;28;20232;-78
2022/09/03 08:37:52;;;;;;;8.77;5.57;;;;;;;21.75;100.00;100271.38;5000433;28;20201;-78
2022/09/03 08:40:23;;;;;;;8.80;4.80;;;;;;;21.53;100.00;100284.28;4992389;28;20197;-79
2022/09/03 08:43:04;;;;;;;8.27;5.18;;;;;;;21.60;100.00;100279.72;4993310;28;20638;-79
2022/09/03 08:45:35;;;;;;;11.10;4.97;;;;;;;21.36;100.00;100268.03;4993145;28;20208;-79
2022/09/03 08:48:08;;;;;;;9.10;5.68;;;;;;;21.31;100.00;100263.78;4992619;28;20235;-78
2022/09/03 08:50:40;;;;;;;11.10;5.50;;;;;;;21.26;100.00;100280.59;4993202;28;20267;-79
2022/09/03 08:53:13;;;;;;;11.60;6.63;;;;;;;21.32;100.00;100271.66;4992117;28;20221;-80
2022/09/03 08:55:47;;;;;;;16.40;7.22;;;;;;;21.29;100.00;100265.59;4980238;28;20562;-78
2022/09/03 08:58:15;;;;;;;24.10;7.78;;;;;;;21.26;100.00;100267.41;4991700;28;20734;-78
2022/09/03 09:00:49;;;;;;;13.07;7.13;;;;;;;21.05;100.00;100235.38;4992761;28;20205;-79
2022/09/03 09:03:42;;;;;;;25.35;8.27;;;;;;;21.37;100.00;100274.19;4991783;28;20209;-79
2022/09/03 09:06:20;;;;;;;9.15;5.20;;;;;;;21.06;100.00;100285.47;4992550;28;20645;-78
2022/09/03 09:08:58;;;;;;;9.93;5.55;;;;;;;20.85;100.00;100280.72;4988453;28;20741;-80
2022/09/03 09:11:38;;;;;;;6.40;4.70;;;;;;;20.71;100.00;100288.06;4989750;28;20202;-80
2022/09/03 09:14:16;;;;;;;7.00;5.32;;;;;;;20.74;100.00;100261.66;4991951;28;20213;-79
2022/09/03 09:16:51;;;;;;;8.32;5.20;;;;;;;21.02;100.00;100282.94;4991777;28;20213;-80
2022/09/03 09:19:34;;;;;;;11.93;5.47;;;;;;;20.84;100.00;100288.63;4991474;28;20335;-80
2022/09/03 09:22:09;;;;;;;10.98;6.35;;;;;;;20.86;100.00;100279.81;4989728;28;20197;-77
2022/09/03 09:24:41;;;;;;;15.32;6.05;;;;;;;21.13;100.00;100286.22;4991772;28;20210;-80
2022/09/03 09:27:08;;;;;;;16.58;6.20;;;;;;;21.23;100.00;100288.56;4992018;28;20669;-81
2022/09/03 09:29:37;;;;;;;10.60;6.80;;;;;;;21.44;100.00;100296.88;4992002;28;20583;-86
2022/09/03 09:32:09;;;;;;;8.13;6.07;;;;;;;20.97;100.00;100298.00;4988986;28;20593;-82
2022/09/03 09:34:36;;;;;;;13.93;6.05;;;;;;;21.13;100.00;100302.03;4991579;28;20233;-88
2022/09/03 09:37:09;;;;;;;6.68;5.50;;;;;;;21.13;100.00;100302.91;4992107;28;20205;-78
2022/09/03 09:39:36;;;;;;;12.20;6.65;;;;;;;21.14;100.00;100298.50;4992053;28;20206;-86
2022/09/03 09:42:08;;;;;;;7.30;4.82;;;;;;;20.98;100.00;100308.50;4992247;28;20202;-85
2022/09/03 09:44:36;;;;;;;10.68;5.75;;;;;;;20.82;100.00;100299.25;4991315;28;20209;-83
2022/09/03 09:47:05;;;;;;;13.73;5.85;;;;;;;20.65;100.00;100288.22;4991076;28;20212;-83
2022/09/03 09:49:35;;;;;;;23.60;11.90;;;;;;;20.79;100.00;100304.59;4991168;28;20197;-83
2022/09/03 09:52:06;;;;;;;9.27;5.10;;;;;;;20.85;100.00;100285.97;4990701;28;20198;-73
2022/09/03 09:54:33;;;;;;;6.35;4.85;;;;;;;20.66;100.00;100289.94;4988292;28;20221;-72
2022/09/03 09:57:03;;;;;;;8.30;5.20;;;;;;;20.89;100.00;100313.13;4990840;28;20209;-77
2022/09/03 09:59:31;;;;;;;6.47;4.85;;;;;;;20.80;100.00;100323.91;4990984;28;20205;-80
2022/09/03 10:02:13;;;;;;;8.10;5.00;;;;;;;21.01;100.00;100316.34;4956678;28;20197;-80
2022/09/03 10:04:42;;;;;;;6.13;4.75;;;;;;;20.98;100.00;100324.31;4987895;28;20201;-80
2022/09/03 10:07:23;;;;;;;5.88;4.72;;;;;;;20.95;100.00;100327.03;4990856;28;20318;-80
2022/09/03 10:10:01;;;;;;;7.50;5.22;;;;;;;20.72;100.00;100311.78;4989951;28;20649;-79
2022/09/03 10:12:34;;;;;;;6.25;5.03;;;;;;;20.98;100.00;100326.09;4973004;28;20208;-75
2022/09/03 10:15:11;;;;;;;8.00;5.40;;;;;;;21.03;100.00;100334.78;4990952;28;20222;-77
2022/09/03 10:17:46;;;;;;;10.32;5.78;;;;;;;20.88;100.00;100340.38;4990179;28;20251;-78
2022/09/03 10:20:29;;;;;;;6.43;4.35;;;;;;;20.92;100.00;100339.41;4977517;28;20202;-76
2022/09/03 10:23:02;;;;;;;6.85;5.00;;;;;;;20.97;100.00;100292.75;4986336;28;20649;-80
2022/09/03 10:25:39;;;;;;;8.93;5.60;;;;;;;21.50;100.00;100345.06;4989683;28;20592;-80
2022/09/03 10:28:09;;;;;;;5.00;4.38;;;;;;;21.62;100.00;100354.41;4989740;28;20205;-78
2022/09/03 10:30:51;;;;;;;6.40;4.97;;;;;;;21.52;100.00;100363.47;4988515;28;20245;-80
2022/09/03 10:33:25;;;;;;;10.20;5.00;;;;;;;21.12;100.00;100367.09;4955514;28;20345;-78
2022/09/03 10:36:07;;;;;;;46.85;22.45;;;;;;;20.93;100.00;100356.97;4983919;28;20194;-78
2022/09/03 10:38:36;;;;;;;14.02;7.82;;;;;;;20.57;100.00;100321.78;4977192;28;20209;-80
2022/09/03 10:41:20;;;;;;;8.20;5.65;;;;;;;20.54;100.00;100353.47;4990333;28;20220;-79
2022/09/03 10:44:10;;;;;;;8.00;5.65;;;;;;;20.45;100.00;100349.25;4989403;28;20206;-84
2022/09/03 10:46:46;;;;;;;8.68;5.72;;;;;;;20.49;100.00;100350.03;4986991;28;20239;-76
2022/09/03 10:49:23;;;;;;;7.05;5.90;;;;;;;20.35;100.00;100360.88;4989777;28;20197;-85
2022/09/03 10:52:00;;;;;;;11.40;5.88;;;;;;;20.22;100.00;100352.31;4989966;28;20212;-78
2022/09/03 10:54:43;;;;;;;7.85;5.07;;;;;;;20.31;100.00;100363.59;4990271;28;20651;-77
2022/09/03 10:57:21;;;;;;;8.68;6.00;;;;;;;20.28;100.00;100357.50;4989390;28;20198;-79
2022/09/03 11:00:00;;;;;;;7.70;5.03;;;;;;;20.07;100.00;100347.34;4985283;28;20240;-79
2022/09/03 11:02:46;;;;;;;10.90;5.75;;;;;;;19.96;100.00;100338.78;4989717;28;20212;-80
2022/09/03 11:05:16;;;;;;;11.75;6.28;;;;;;;19.89;100.00;100326.66;4990913;28;20208;-79
2022/09/03 11:07:48;;;;;;;7.75;5.95;;;;;;;20.14;100.00;100359.50;4983731;28;20229;-80
2022/09/03 11:10:21;;;;;;;8.75;6.32;;;;;;;20.14;100.00;100366.53;4989183;28;20308;-81
2022/09/03 11:12:55;;;;;;;9.27;5.78;;;;;;;20.15;100.00;100353.34;4990069;28;20198;-81
2022/09/03 11:15:27;;;;;;;11.00;5.90;;;;;;;19.77;100.00;100361.06;4990139;28;20218;-80
2022/09/03 11:18:01;;;;;;;12.63;5.72;;;;;;;19.99;100.00;100361.56;4980534;28;20210;-79
2022/09/03 11:20:29;;;;;;;10.07;5.78;;;;;;;19.87;100.00;100349.47;4953104;28;20784;-82
2022/09/03 11:23:00;;;;;;;9.18;6.43;;;;;;;20.07;100.00;100352.63;4990656;28;20198;-83
2022/09/03 11:25:32;;;;;;;9.15;5.70;;;;;;;20.23;100.00;100364.56;4954643;28;20197;-82
2022/09/03 11:28:11;;;;;;;8.43;5.55;;;;;;;20.42;100.00;100386.19;4989640;28;20598;-80
2022/09/03 11:30:53;;;;;;;7.90;6.10;;;;;;;20.46;100.00;100374.69;4983622;28;20276;-78
2022/09/03 11:33:24;;;;;;;11.02;6.47;;;;;;;20.35;100.00;100373.16;4991769;28;20213;-80